createdAt,value
2022-12-01T02:18:08.992Z,-4.76
2022-12-01T02:19:24.956Z,-4.67
2022-12-01T02:20:54.251Z,-4.61
2022-12-01T02:22:19.189Z,-4.56
2022-12-01T02:23:41.217Z,-4.56
2022-12-01T02:24:54.128Z,-4.56
2022-12-01T02:26:01.161Z,-4.54
2022-12-01T02:27:11.258Z,-4.52
2022-12-01T02:28:18.151Z,-4.53
2022-12-01T02:29:34.083Z,-4.53
2022-12-01T02:30:53.111Z,-4.52
2022-12-01T02:32:19.571Z,-4.53
2022-12-01T02:33:26.556Z,-4.50
2022-12-01T02:34:48.232Z,-4.53
2022-12-01T02:36:19.558Z,-4.53
2022-12-01T02:52:31.558Z,-4.61
2022-12-01T02:53:36.018Z,-4.58
2022-12-01T02:54:41.706Z,-4.58
2022-12-01T02:55:52.104Z,-4.56
2022-12-01T02:56:56.578Z,-4.56
2022-12-01T02:58:01.116Z,-4.56
2022-12-01T02:59:13.126Z,-4.56
2022-12-01T03:00:18.585Z,-4.57
2022-12-01T03:01:28.909Z,-4.55
2022-12-01T03:03:07.803Z,-4.53
2022-12-01T03:04:33.070Z,-4.55
2022-12-01T03:05:43.238Z,-4.55
2022-12-01T03:07:12.670Z,-4.53
2022-12-01T03:08:39.337Z,-4.55
2022-12-01T03:10:10.587Z,-4.60
2022-12-01T03:11:17.665Z,-4.59
2022-12-01T03:12:33.693Z,-4.60
2022-12-01T03:13:46.568Z,-4.62
2022-12-01T03:15:09.150Z,-4.59
2022-12-01T03:16:22.280Z,-4.60
2022-12-01T03:17:29.662Z,-4.60
2022-12-01T03:18:51.740Z,-4.61
2022-12-01T03:19:59.100Z,-4.62
2022-12-01T03:21:12.132Z,-4.64
2022-12-01T03:22:56.027Z,-4.63
2022-12-01T03:23:52.653Z,-4.63
2022-12-01T03:25:15.054Z,-4.59
2022-12-01T03:26:25.112Z,-4.61
2022-12-01T03:27:32.388Z,-4.61
2022-12-01T03:28:39.618Z,-4.63
2022-12-01T03:29:47.325Z,-4.63
2022-12-01T03:31:04.423Z,-4.61
2022-12-01T03:32:20.427Z,-4.62
2022-12-01T03:33:36.314Z,-4.61
2022-12-01T03:34:43.631Z,-4.62
2022-12-01T03:36:02.147Z,-4.62
2022-12-01T03:37:15.099Z,-4.64
2022-12-01T03:38:22.287Z,-4.65
2022-12-01T03:39:29.523Z,-4.64
2022-12-01T03:40:37.089Z,-4.64
2022-12-01T03:41:44.280Z,-4.64
2022-12-01T03:42:54.493Z,-4.61
2022-12-01T03:44:09.985Z,-4.63
2022-12-01T03:45:17.229Z,-4.62
2022-12-01T03:46:26.351Z,-4.61
2022-12-01T03:47:32.595Z,-4.61
2022-12-01T03:48:39.506Z,-4.61
2022-12-01T03:49:44.609Z,-4.63
2022-12-01T03:51:03.678Z,-4.61
2022-12-01T03:52:38.067Z,-4.61
2022-12-01T03:53:57.227Z,-4.63
2022-12-01T03:55:06.936Z,-4.64
2022-12-01T03:56:13.411Z,-4.64
2022-12-01T03:57:32.339Z,-4.65
2022-12-01T04:00:14.816Z,-4.65
2022-12-01T04:01:19.367Z,-4.68
2022-12-01T04:02:23.678Z,-4.69
2022-12-01T04:03:28.088Z,-4.69
2022-12-01T04:04:32.585Z,-4.69
2022-12-01T04:05:41.432Z,-4.67
2022-12-01T04:06:50.075Z,-4.69
2022-12-01T04:07:57.026Z,-4.65
2022-12-01T04:09:02.163Z,-4.65
2022-12-01T04:10:08.388Z,-4.65
2022-12-01T04:11:12.437Z,-4.65
2022-12-01T04:12:18.227Z,-4.63
2022-12-01T04:13:23.032Z,-4.61
2022-12-01T04:14:28.719Z,-4.63
2022-12-01T04:15:34.568Z,-4.64
2022-12-01T04:16:40.726Z,-4.62
2022-12-01T04:17:48.176Z,-4.59
2022-12-01T04:18:57.443Z,-4.62
2022-12-01T04:20:04.434Z,-5.17
2022-12-01T04:21:08.946Z,-4.63
2022-12-01T04:22:13.654Z,-4.65
2022-12-01T04:23:18.671Z,-4.63
2022-12-01T04:24:25.482Z,-4.63
2022-12-01T04:25:29.415Z,-4.64
2022-12-01T04:26:36.972Z,-4.63
2022-12-01T04:27:41.381Z,-4.63
2022-12-01T04:28:45.820Z,-4.61
2022-12-01T04:29:50.300Z,-4.66
2022-12-01T04:30:57.955Z,-4.64
2022-12-01T04:32:04.508Z,-4.63
2022-12-01T04:33:10.428Z,-4.63
2022-12-01T04:34:14.384Z,-4.64
2022-12-01T04:35:19.698Z,-4.64
2022-12-01T04:36:25.335Z,-4.62
2022-12-01T04:37:29.595Z,-4.63
2022-12-01T04:38:36.778Z,-4.64
2022-12-01T04:39:40.901Z,-4.63
2022-12-01T04:40:44.941Z,-4.63
2022-12-01T04:41:49.112Z,-4.66
2022-12-01T04:42:53.161Z,-4.64
2022-12-01T04:43:57.797Z,-4.65
2022-12-01T04:45:01.788Z,-4.65
2022-12-01T04:46:06.934Z,-4.64
2022-12-01T04:47:15.470Z,-4.65
2022-12-01T04:48:20.052Z,-4.66
2022-12-01T04:49:24.110Z,-4.64
2022-12-01T04:50:28.361Z,-4.66
2022-12-01T04:51:32.721Z,-4.66
2022-12-01T04:52:38.119Z,-4.66
2022-12-01T04:53:42.491Z,-4.66
2022-12-01T04:54:46.509Z,-4.66
2022-12-01T04:55:50.596Z,-4.67
2022-12-01T04:56:54.667Z,-4.68
2022-12-01T04:57:58.701Z,-4.68
2022-12-01T04:59:02.725Z,-4.67
2022-12-01T05:00:07.883Z,-4.67
2022-12-01T05:01:14.587Z,-4.67
2022-12-01T05:02:18.830Z,-4.68
2022-12-01T05:03:22.954Z,-4.67
2022-12-01T05:04:27.020Z,-4.67
2022-12-01T05:05:31.182Z,-4.68
2022-12-01T05:06:35.303Z,-4.68
2022-12-01T05:07:39.559Z,-4.68
2022-12-01T05:08:45.166Z,-4.68
2022-12-01T05:09:49.418Z,-4.68
2022-12-01T05:10:56.087Z,-4.68
2022-12-01T05:12:00.150Z,-4.69
2022-12-01T05:13:05.926Z,-4.69
2022-12-01T05:14:10.223Z,-4.70
2022-12-01T05:15:17.464Z,-4.68
2022-12-01T05:16:27.681Z,-4.69
2022-12-01T05:17:36.943Z,-4.69
2022-12-01T05:18:39.804Z,-4.69
2022-12-01T05:19:44.114Z,-4.69
2022-12-01T05:20:48.437Z,-4.70
2022-12-01T05:21:53.424Z,-4.71
2022-12-01T05:23:05.622Z,-4.69
2022-12-01T05:24:08.403Z,-4.70
2022-12-01T05:25:12.800Z,-4.71
2022-12-01T05:26:17.178Z,-4.72
2022-12-01T05:27:21.567Z,-4.72
2022-12-01T05:28:27.189Z,-4.73
2022-12-01T05:29:31.697Z,-4.72
2022-12-01T05:30:36.058Z,-4.75
2022-12-01T05:31:40.939Z,-4.75
2022-12-01T05:32:45.323Z,-4.74
2022-12-01T05:33:49.769Z,-4.75
2022-12-01T05:34:54.204Z,-4.74
2022-12-01T05:35:58.757Z,-4.72
2022-12-01T05:37:03.447Z,-4.74
2022-12-01T05:38:08.386Z,-4.74
2022-12-01T05:39:12.563Z,-4.74
2022-12-01T05:40:16.997Z,-4.75
2022-12-01T05:41:21.690Z,-4.77
2022-12-01T05:42:26.099Z,-4.75
2022-12-01T05:43:34.674Z,-4.76
2022-12-01T05:44:39.094Z,-4.74
2022-12-01T05:45:43.330Z,-4.73
2022-12-01T05:46:47.500Z,-4.70
2022-12-01T05:47:53.208Z,-4.71
2022-12-01T05:48:57.194Z,-4.68
2022-12-01T05:50:05.463Z,-4.68
2022-12-01T05:51:12.551Z,-4.68
2022-12-01T05:52:16.611Z,-4.67
2022-12-01T05:53:20.759Z,-4.67
2022-12-01T05:54:24.898Z,-4.70
2022-12-01T05:55:29.023Z,-4.70
2022-12-01T05:56:33.187Z,-4.66
2022-12-01T05:57:37.447Z,-4.64
2022-12-01T05:58:41.881Z,-4.63
2022-12-01T05:59:45.896Z,-4.64
2022-12-01T06:00:50.081Z,-4.63
2022-12-01T06:01:54.249Z,-4.63
2022-12-01T06:02:58.715Z,-4.61
2022-12-01T06:04:03.076Z,-4.59
2022-12-01T06:05:08.185Z,-4.58
2022-12-01T06:06:12.507Z,-4.55
2022-12-01T06:07:16.666Z,-4.54
2022-12-01T06:08:20.785Z,-4.52
2022-12-01T06:09:25.175Z,-4.51
2022-12-01T06:10:29.484Z,-4.51
2022-12-01T06:11:33.488Z,-4.75
2022-12-01T06:12:38.633Z,-4.75
2022-12-01T06:13:43.072Z,-4.40
2022-12-01T06:14:47.371Z,-4.37
2022-12-01T06:15:59.121Z,-4.37
2022-12-01T06:17:03.190Z,-4.29
2022-12-01T06:18:07.286Z,-4.25
2022-12-01T06:19:11.453Z,-4.20
2022-12-01T06:20:15.541Z,-4.20
2022-12-01T06:21:19.801Z,-4.15
2022-12-01T06:22:23.850Z,-4.02
2022-12-01T06:23:30.521Z,-3.96
2022-12-01T06:24:34.097Z,-3.94
2022-12-01T06:25:40.240Z,-3.89
2022-12-01T06:33:37.363Z,-3.64
2022-12-01T06:34:41.525Z,-3.56
2022-12-01T06:35:45.824Z,-3.56
2022-12-01T06:36:53.348Z,-3.48
2022-12-01T06:37:59.639Z,-3.44
2022-12-01T06:40:44.222Z,-3.32
2022-12-01T06:41:49.727Z,-3.31
2022-12-01T06:43:06.885Z,-3.25
2022-12-01T06:45:24.484Z,-3.18
2022-12-01T06:56:57.271Z,-2.98
2022-12-01T06:58:01.839Z,-2.93
2022-12-01T06:59:06.166Z,-2.91
2022-12-01T07:00:11.696Z,-2.91
2022-12-01T07:01:17.521Z,-2.87
2022-12-01T07:02:21.807Z,-2.86
2022-12-01T07:03:26.328Z,-2.79
2022-12-01T07:04:30.878Z,-2.75
2022-12-01T07:05:36.765Z,-2.71
2022-12-01T07:06:40.912Z,-2.68
2022-12-01T07:07:48.680Z,-2.64
2022-12-01T07:08:53.774Z,-2.61
2022-12-01T07:09:58.098Z,-2.59
2022-12-01T07:11:08.731Z,-2.55
2022-12-01T07:12:16.940Z,-2.52
2022-12-01T07:13:26.640Z,-2.51
2022-12-01T07:14:34.683Z,-2.46
2022-12-01T07:15:41.327Z,-2.43
2022-12-01T07:16:55.324Z,-2.44
2022-12-01T07:18:03.280Z,-2.43
2022-12-01T07:19:09.593Z,-2.40
2022-12-01T07:20:32.077Z,-2.40
2022-12-01T07:21:40.952Z,-2.34
2022-12-01T07:50:02.955Z,-2.31
2022-12-01T08:44:12.258Z,-1.02
2022-12-01T08:45:16.292Z,-1.01
2022-12-01T08:46:20.797Z,-0.92
2022-12-01T08:47:25.205Z,-0.91
2022-12-01T08:48:29.528Z,-0.84
2022-12-01T08:49:34.063Z,-0.84
2022-12-01T08:50:38.427Z,-0.81
2022-12-01T08:51:44.346Z,-0.77
2022-12-01T08:52:55.317Z,-0.78
2022-12-01T08:53:56.910Z,-0.76
2022-12-01T08:55:04.551Z,-0.76
2022-12-01T08:56:10.845Z,-0.76
2022-12-01T08:57:16.508Z,-0.75
2022-12-01T08:58:20.553Z,-0.76
2022-12-01T08:59:25.118Z,-0.76
2022-12-01T09:00:29.405Z,-0.76
2022-12-01T09:01:33.826Z,-0.77
2022-12-01T09:02:40.831Z,-0.78
2022-12-01T09:03:45.224Z,-0.81
2022-12-01T09:04:53.566Z,-0.81
2022-12-01T09:06:03.488Z,-0.74
2022-12-01T09:07:13.632Z,-0.73
2022-12-01T09:08:18.071Z,-0.72
2022-12-01T09:09:30.888Z,-0.72
2022-12-01T09:10:35.119Z,-0.68
2022-12-01T09:11:39.956Z,-0.63
2022-12-01T09:12:46.479Z,-0.68
2022-12-01T09:13:54.602Z,-0.68
2022-12-01T09:14:56.892Z,-0.64
2022-12-01T09:16:07.131Z,-0.67
2022-12-01T09:17:14.390Z,-0.70
2022-12-01T09:18:21.009Z,-0.67
2022-12-01T09:19:25.377Z,-0.68
2022-12-01T09:20:29.820Z,-0.68
2022-12-01T09:21:35.814Z,-0.69
2022-12-01T09:22:41.819Z,-0.68
2022-12-01T09:23:46.561Z,-0.68
2022-12-01T09:25:05.691Z,-0.67
2022-12-01T09:26:13.510Z,-0.59
2022-12-01T09:27:18.466Z,-0.63
2022-12-01T09:28:27.542Z,-0.63
2022-12-01T09:29:51.381Z,-0.58
2022-12-01T09:31:00.177Z,-0.58
2022-12-01T09:33:35.319Z,-0.56
2022-12-01T09:34:39.704Z,-0.51
2022-12-01T09:35:46.357Z,-0.52
2022-12-01T09:36:52.087Z,-0.51
2022-12-01T09:37:57.718Z,-0.47
2022-12-01T09:39:02.960Z,-0.56
2022-12-01T09:40:18.271Z,-0.59
2022-12-01T09:41:26.521Z,-0.55
2022-12-01T09:42:35.375Z,-0.55
2022-12-01T09:43:46.123Z,-0.53
2022-12-01T09:44:55.377Z,-0.56
2022-12-01T09:46:10.466Z,-0.59
2022-12-01T09:47:36.108Z,-0.60
2022-12-01T09:48:47.980Z,-0.58
2022-12-01T09:55:12.012Z,-0.61
2022-12-01T09:57:53.156Z,-0.72
2022-12-01T09:59:04.452Z,-0.75
2022-12-01T09:59:50.692Z,-0.67
2022-12-01T10:00:31.485Z,-0.72
2022-12-01T10:07:46.728Z,-0.75
2022-12-01T10:09:21.914Z,-0.67
2022-12-01T10:10:32.811Z,-0.60
2022-12-01T10:11:40.109Z,-0.58
2022-12-01T10:12:47.757Z,-0.55
2022-12-01T10:13:57.219Z,-0.55
2022-12-01T10:15:39.182Z,-0.51
2022-12-01T10:16:58.408Z,-0.51
2022-12-01T10:18:09.999Z,-0.46
2022-12-01T10:19:20.274Z,-0.41
2022-12-01T10:20:30.898Z,-0.38
2022-12-01T10:21:57.229Z,-0.38
2022-12-01T10:23:10.988Z,-0.43
2022-12-01T10:24:41.834Z,-0.40
2022-12-01T10:25:58.135Z,-0.38
2022-12-01T10:27:30.773Z,-0.32
2022-12-01T10:30:27.115Z,-0.35
2022-12-01T10:34:10.308Z,-0.37
2022-12-01T10:35:27.538Z,-0.43
2022-12-01T10:36:30.330Z,-0.37
2022-12-01T10:37:36.393Z,-0.37
2022-12-01T10:38:44.504Z,-0.37
2022-12-01T10:39:58.006Z,-0.37
2022-12-01T10:41:09.442Z,-0.32
2022-12-01T10:42:16.538Z,-0.32
2022-12-01T10:43:24.808Z,-0.22
2022-12-01T10:44:35.388Z,-0.25
2022-12-01T10:45:45.483Z,-0.28
2022-12-01T10:46:57.256Z,-0.18
2022-12-01T10:48:23.335Z,-0.15
2022-12-01T10:49:45.057Z,-0.10
2022-12-01T10:50:56.458Z,-0.10
2022-12-01T10:52:00.033Z,-0.11
2022-12-01T10:53:05.397Z,-0.13
2022-12-01T10:54:12.013Z,-0.12
2022-12-01T10:55:43.327Z,-0.06
2022-12-01T10:56:47.905Z,-0.05
2022-12-01T10:57:56.522Z,-0.06
2022-12-01T10:59:04.239Z,-0.04
2022-12-01T11:00:11.041Z,-0.05
2022-12-01T11:01:32.511Z,-0.03
2022-12-01T11:02:31.626Z,-0.01
2022-12-01T11:03:37.213Z,-0.01
2022-12-01T11:04:49.159Z,0.03
2022-12-01T11:05:58.478Z,0.06
2022-12-01T11:07:04.477Z,0.07
2022-12-01T11:08:12.044Z,0.08
2022-12-01T11:09:26.152Z,0.11
2022-12-01T11:10:30.693Z,0.11
2022-12-01T11:11:38.062Z,0.12
2022-12-01T11:12:48.125Z,0.15
2022-12-01T11:13:57.492Z,0.15
2022-12-01T11:15:02.919Z,0.19
2022-12-01T11:16:07.968Z,0.20
2022-12-01T11:17:43.103Z,0.23
2022-12-01T11:18:47.424Z,0.23
2022-12-01T11:19:53.672Z,0.23
2022-12-01T11:21:10.085Z,0.23
2022-12-01T11:22:23.864Z,0.26
2022-12-01T11:26:07.187Z,0.19
2022-12-01T11:27:27.104Z,0.14
2022-12-01T11:28:37.713Z,-3.80
2022-12-01T11:29:49.611Z,0.18
2022-12-01T11:31:08.617Z,0.07
2022-12-01T11:32:32.480Z,0.10
2022-12-01T11:33:55.828Z,0.10
2022-12-01T11:35:07.706Z,0.05
2022-12-01T11:36:28.557Z,0.05
2022-12-01T11:37:42.006Z,0.07
2022-12-01T11:38:54.400Z,0.02
2022-12-01T11:40:00.240Z,0.02
2022-12-01T11:41:07.861Z,0.01
2022-12-01T11:42:23.961Z,0.04
2022-12-01T11:43:34.240Z,0.01
2022-12-01T11:45:53.080Z,0.05
2022-12-01T11:47:22.109Z,0.01
2022-12-01T11:48:15.113Z,0.02
2022-12-01T11:49:22.628Z,0.02
2022-12-01T11:50:30.486Z,0.04
2022-12-01T11:51:36.241Z,0.05
2022-12-01T11:52:51.276Z,0.04
2022-12-01T11:54:23.071Z,0.04
2022-12-01T11:55:32.559Z,-0.02
2022-12-01T11:56:37.139Z,-0.05
2022-12-01T11:57:47.435Z,-0.05
2022-12-01T11:59:03.996Z,-0.03
2022-12-01T12:00:19.508Z,-0.06
2022-12-01T12:01:47.684Z,-0.12
2022-12-01T12:03:20.245Z,-0.13
2022-12-01T12:04:27.456Z,-0.13
2022-12-01T12:05:40.359Z,-0.16
2022-12-01T12:07:02.862Z,-0.20
2022-12-01T12:08:15.998Z,-0.15
2022-12-01T12:09:25.524Z,-0.16
2022-12-01T12:10:47.358Z,-0.18
2022-12-01T12:12:12.333Z,-0.09
2022-12-01T12:13:34.254Z,-0.09
2022-12-01T12:15:07.272Z,-0.14
2022-12-01T12:16:38.206Z,-0.21
2022-12-01T12:18:02.048Z,-0.18
2022-12-01T12:19:11.666Z,-0.19
2022-12-01T12:20:40.080Z,-0.17
2022-12-01T12:21:53.082Z,-0.18
2022-12-01T12:23:15.464Z,-0.17
2022-12-01T12:24:22.754Z,-0.15
2022-12-01T12:25:46.502Z,-0.13
2022-12-01T12:27:10.030Z,-0.12
2022-12-01T12:28:33.520Z,-0.06
2022-12-01T12:29:57.198Z,-0.14
2022-12-01T12:31:13.056Z,-0.11
2022-12-01T12:32:37.949Z,-0.11
2022-12-01T12:34:02.795Z,-0.17
2022-12-01T12:35:25.067Z,-0.19
2022-12-01T12:36:40.405Z,-0.30
2022-12-01T12:38:11.695Z,-0.32
2022-12-01T12:39:28.400Z,-0.34
2022-12-01T12:40:38.753Z,-0.36
2022-12-01T12:42:03.163Z,-0.36
2022-12-01T12:43:37.968Z,-0.36
2022-12-01T12:44:51.786Z,-0.36
2022-12-01T12:46:05.029Z,-0.37
2022-12-01T12:47:44.044Z,-0.39
2022-12-01T12:50:12.021Z,-0.39
2022-12-01T12:51:27.911Z,-0.40
2022-12-01T12:52:38.716Z,-0.43
2022-12-01T12:54:01.228Z,-0.42
2022-12-01T12:55:12.637Z,-0.44
2022-12-01T12:56:20.007Z,-0.44
2022-12-01T12:57:42.180Z,-0.43
2022-12-01T12:59:05.747Z,-0.40
2022-12-01T13:17:54.092Z,-0.69
2022-12-01T13:19:20.885Z,-0.69
2022-12-01T13:20:28.285Z,-0.70
2022-12-01T13:21:44.647Z,-0.69
2022-12-01T13:22:50.205Z,-1.24
2022-12-01T13:23:54.964Z,-0.73
2022-12-01T13:24:59.182Z,-0.72
2022-12-01T13:26:06.333Z,-0.67
2022-12-01T13:27:16.540Z,-0.65
2022-12-01T13:28:31.497Z,-0.62
2022-12-01T13:29:43.718Z,-0.60
2022-12-01T13:30:59.127Z,-0.57
2022-12-01T13:32:04.408Z,-0.59
2022-12-01T13:33:10.529Z,-0.59
2022-12-01T13:34:41.533Z,-0.57
2022-12-01T13:35:52.948Z,-0.57
2022-12-01T13:36:55.291Z,-0.58
2022-12-01T13:38:23.596Z,-0.58
2022-12-01T13:39:30.813Z,-0.59
2022-12-01T13:40:35.286Z,-0.59
2022-12-01T13:41:40.424Z,-0.58
2022-12-01T13:42:47.689Z,-0.57
2022-12-01T13:44:00.285Z,-0.56
2022-12-01T13:45:10.375Z,-0.55
2022-12-01T13:46:33.778Z,-0.55
2022-12-01T13:47:48.527Z,-0.55
2022-12-01T13:48:56.202Z,-0.61
2022-12-01T13:50:03.469Z,-1.93
2022-12-01T13:51:07.905Z,-0.83
2022-12-01T13:52:26.687Z,-0.55
2022-12-01T13:53:36.298Z,-0.60
2022-12-01T13:54:41.938Z,-0.61
2022-12-01T13:56:01.102Z,-0.59
2022-12-01T13:57:08.338Z,-0.60
2022-12-01T13:58:15.408Z,-0.61
2022-12-01T13:59:41.916Z,-0.62
2022-12-01T14:00:46.302Z,-0.63
2022-12-01T14:01:56.875Z,-0.65
2022-12-01T14:03:22.037Z,-0.62
2022-12-01T14:04:31.093Z,-0.63
2022-12-01T14:05:43.860Z,-0.63
2022-12-01T14:06:50.198Z,-0.64
2022-12-01T14:07:55.173Z,-0.67
2022-12-01T14:09:02.043Z,-0.65
2022-12-01T14:10:21.311Z,-0.64
2022-12-01T14:11:30.398Z,-0.67
2022-12-01T14:12:35.360Z,-0.65
2022-12-01T14:14:03.760Z,-0.68
2022-12-01T14:15:25.897Z,-0.69
2022-12-01T14:16:50.620Z,-0.72
2022-12-01T14:18:03.763Z,-0.73
2022-12-01T14:19:09.485Z,-0.75
2022-12-01T14:20:22.058Z,-0.75
2022-12-01T14:21:50.403Z,-0.76
2022-12-01T14:23:11.272Z,-0.79
2022-12-01T14:24:30.330Z,-0.81
2022-12-01T14:26:46.241Z,-0.83
2022-12-01T14:27:57.916Z,-0.86
2022-12-01T14:29:05.068Z,-0.88
2022-12-01T14:30:44.275Z,-0.90
2022-12-01T14:32:03.346Z,-0.88
2022-12-01T14:33:43.680Z,-0.91
2022-12-01T14:34:53.319Z,-0.94
2022-12-01T14:36:02.816Z,-0.96
2022-12-01T14:37:22.123Z,-0.95
2022-12-01T14:38:52.670Z,-0.95
2022-12-01T14:39:42.565Z,-0.94
2022-12-01T14:40:50.104Z,-0.94
2022-12-01T14:42:06.465Z,-0.92
2022-12-01T14:43:17.150Z,-0.90
2022-12-01T14:44:55.804Z,-0.90
2022-12-01T14:46:06.232Z,-0.88
2022-12-01T14:47:30.336Z,-0.88
2022-12-01T14:48:40.279Z,-0.88
2022-12-01T14:49:53.652Z,-0.86
2022-12-01T14:51:00.876Z,-0.85
2022-12-01T14:52:12.147Z,-0.85
2022-12-01T14:53:27.972Z,-0.85
2022-12-01T14:54:50.650Z,-0.85
2022-12-01T14:56:02.259Z,-0.84
2022-12-01T14:57:12.331Z,-0.86
2022-12-01T14:58:17.340Z,-0.84
2022-12-01T14:59:27.255Z,-0.86
2022-12-01T15:00:39.038Z,-0.86
2022-12-01T15:01:45.596Z,-0.87
2022-12-01T15:03:01.845Z,-0.85
2022-12-01T15:04:09.491Z,-0.88
2022-12-01T15:05:21.665Z,-0.87
2022-12-01T15:06:32.956Z,-0.86
2022-12-01T15:07:40.992Z,-0.83
2022-12-01T15:09:10.492Z,-0.82
2022-12-01T15:10:06.288Z,-0.84
2022-12-01T15:11:22.539Z,-0.84
2022-12-01T15:12:30.028Z,-0.86
2022-12-01T15:13:52.619Z,-0.86
2022-12-01T15:14:56.868Z,-0.84
2022-12-01T15:16:06.391Z,-0.87
2022-12-01T15:17:29.956Z,-0.87
2022-12-01T15:18:37.431Z,-0.90
2022-12-01T15:19:42.388Z,-0.90
2022-12-01T15:20:48.203Z,-0.91
2022-12-01T15:21:54.375Z,-0.94
2022-12-01T15:23:01.070Z,-0.98
2022-12-01T15:24:22.899Z,-0.93
2022-12-01T15:25:31.499Z,-0.97
2022-12-01T15:26:38.930Z,-0.95
2022-12-01T15:39:36.572Z,-0.75
2022-12-01T15:41:13.233Z,-0.71
2022-12-01T15:41:49.205Z,-0.70
2022-12-01T15:43:08.505Z,-0.69
2022-12-01T15:44:30.488Z,-0.71
2022-12-01T15:47:36.683Z,-0.73
2022-12-01T15:48:41.301Z,-0.74
2022-12-01T15:49:50.526Z,-0.74
2022-12-01T15:51:06.514Z,-0.76
2022-12-01T15:52:12.861Z,-0.76
2022-12-01T15:53:26.749Z,-0.78
2022-12-01T15:54:31.333Z,-0.78
2022-12-01T15:55:42.028Z,-0.79
2022-12-01T15:56:50.842Z,-0.78
2022-12-01T15:57:56.987Z,-0.82
2022-12-01T15:59:09.716Z,-0.84
2022-12-01T16:00:22.343Z,-0.83
2022-12-01T16:01:32.770Z,-0.83
2022-12-01T16:02:38.691Z,-0.83
2022-12-01T16:04:03.886Z,-0.86
2022-12-01T16:05:11.109Z,-0.86
2022-12-01T16:06:15.747Z,-0.85
2022-12-01T16:07:20.141Z,-0.85
2022-12-01T16:08:26.852Z,-0.91
2022-12-01T16:09:44.523Z,-0.92
2022-12-01T16:11:07.957Z,-0.93
2022-12-01T16:12:22.915Z,-0.92
2022-12-01T16:13:57.159Z,-0.93
2022-12-01T16:15:04.484Z,-0.96
2022-12-01T16:16:40.241Z,-0.96
2022-12-01T16:17:50.245Z,-0.96
2022-12-01T16:19:13.816Z,-0.95
2022-12-01T16:20:29.239Z,-0.97
2022-12-01T16:21:36.531Z,-0.99
2022-12-01T16:22:47.697Z,-1.00
2022-12-01T16:24:00.287Z,-1.00
2022-12-01T16:25:17.047Z,-1.01
2022-12-01T16:26:21.195Z,-1.01
2022-12-01T16:27:28.414Z,-1.01
2022-12-01T16:28:36.248Z,-1.02
2022-12-01T16:30:04.502Z,-1.00
2022-12-01T16:31:15.085Z,-1.02
2022-12-01T16:32:24.780Z,-1.03
2022-12-01T16:33:31.683Z,-1.05
2022-12-01T16:34:56.780Z,-1.04
2022-12-01T16:40:57.310Z,-1.04
2022-12-01T16:42:17.213Z,-1.03
2022-12-01T16:43:24.661Z,-1.07
2022-12-01T16:44:29.194Z,-1.10
2022-12-01T16:45:37.001Z,-1.07
2022-12-01T16:46:47.134Z,-1.07
2022-12-01T16:48:09.249Z,-1.06
2022-12-01T16:49:09.169Z,-1.05
2022-12-01T16:50:15.427Z,-1.05
2022-12-01T16:51:54.187Z,-1.04
2022-12-01T16:52:44.521Z,-1.05
2022-12-01T16:53:51.020Z,-1.05
2022-12-01T16:55:01.768Z,-1.05
2022-12-01T16:56:07.885Z,-1.03
2022-12-01T16:57:16.422Z,-1.04
2022-12-01T16:58:26.653Z,-1.06
2022-12-01T16:59:34.401Z,-1.07
2022-12-01T17:00:47.002Z,-1.07
2022-12-01T17:02:02.308Z,-1.09
2022-12-01T17:03:18.501Z,-1.13
2022-12-01T17:04:32.929Z,-1.10
2022-12-01T17:06:02.030Z,-1.13
2022-12-01T17:07:06.661Z,-1.17
2022-12-01T17:09:50.845Z,-1.20
2022-12-01T17:11:15.645Z,-1.20
2022-12-01T17:16:52.817Z,-1.25
2022-12-01T20:23:53.301Z,-2.32
2022-12-01T20:56:21.991Z,-2.83
2022-12-01T20:57:34.444Z,-2.84
2022-12-01T20:59:00.539Z,-2.79
2022-12-01T21:00:34.786Z,-2.78
2022-12-01T21:02:49.132Z,-2.74
2022-12-01T21:03:58.034Z,-2.74
2022-12-01T21:05:05.523Z,-2.76
2022-12-01T21:06:18.515Z,-2.75
2022-12-01T21:07:34.002Z,-2.71
2022-12-01T21:08:36.126Z,-2.73
2022-12-01T21:13:05.103Z,-2.71
2022-12-01T21:14:41.168Z,-2.66
2022-12-01T21:18:10.703Z,-2.57
2022-12-01T21:19:24.903Z,-2.72
2022-12-01T21:20:36.232Z,-2.69
2022-12-01T21:21:42.113Z,-2.70
2022-12-01T21:22:56.740Z,-2.70
2022-12-01T21:24:03.942Z,-2.67
2022-12-01T21:25:17.210Z,-2.67
2022-12-01T21:27:19.305Z,-2.70
2022-12-01T21:28:30.045Z,-2.70
2022-12-01T21:29:49.667Z,-2.70
2022-12-01T21:31:16.890Z,-2.68
2022-12-01T21:32:37.772Z,-2.70
2022-12-01T21:33:44.745Z,-2.70
2022-12-01T21:34:51.638Z,-2.72
2022-12-01T21:35:56.802Z,-2.72
2022-12-01T21:37:04.583Z,-2.69
2022-12-01T21:38:11.794Z,-2.69
2022-12-01T21:39:19.759Z,-2.71
2022-12-01T21:40:26.576Z,-2.68
2022-12-01T21:41:31.716Z,-2.70
2022-12-01T21:42:37.650Z,-2.68
2022-12-01T21:43:42.105Z,-2.71
2022-12-01T21:44:49.716Z,-2.70
2022-12-01T21:45:57.541Z,-2.68
2022-12-01T21:47:04.704Z,-2.64
2022-12-01T21:48:17.763Z,-2.64
2022-12-01T21:49:24.480Z,-2.62
2022-12-01T21:50:29.011Z,-2.62
2022-12-01T21:51:34.966Z,-2.62
2022-12-01T21:52:43.175Z,-2.62
2022-12-01T21:53:52.568Z,-2.68
2022-12-01T21:55:03.274Z,-2.62
2022-12-01T21:56:10.515Z,-2.61
2022-12-01T21:57:45.872Z,-2.61
2022-12-01T22:13:17.165Z,-2.80
2022-12-01T22:14:37.325Z,-2.78
2022-12-01T22:31:34.322Z,-2.87
2022-12-01T22:32:04.668Z,-2.88
2022-12-01T22:33:00.711Z,-2.87
2022-12-01T22:34:07.237Z,-2.84
2022-12-01T22:35:16.271Z,-2.80
2022-12-01T22:39:43.607Z,-2.73
2022-12-01T22:41:16.728Z,-2.70
2022-12-01T22:42:34.467Z,-2.72
2022-12-01T22:43:52.120Z,-2.70
